sensor_id;sensor_type;location;lat;lon;timestamp;P1;durP1;ratioP1;P2;durP2;ratioP2
4122;SDS011;2075;51.062;6.920;2023-05-07T00:02:39;9.43;;;6.90;;
4122;SDS011;2075;51.062;6.920;2023-05-07T00:05:30;12.80;;;6.60;;
4122;SDS011;2075;51.062;6.920;2023-05-07T00:08:16;8.97;;;6.80;;
4122;SDS011;2075;51.062;6.920;2023-05-07T00:11:02;12.87;;;7.47;;
4122;SDS011;2075;51.062;6.920;2023-05-07T00:13:52;8.13;;;6.57;;
4122;SDS011;2075;51.062;6.920;2023-05-07T00:16:47;8.90;;;6.47;;
4122;SDS011;2075;51.062;6.920;2023-05-07T00:19:36;8.37;;;5.67;;
4122;SDS011;2075;51.062;6.920;2023-05-07T00:22:24;7.43;;;6.00;;
4122;SDS011;2075;51.062;6.920;2023-05-07T00:25:11;14.17;;;6.20;;
4122;SDS011;2075;51.062;6.920;2023-05-07T00:27:59;6.37;;;5.23;;
4122;SDS011;2075;51.062;6.920;2023-05-07T00:30:54;6.10;;;5.50;;
4122;SDS011;2075;51.062;6.920;2023-05-07T00:33:45;7.90;;;4.97;;
4122;SDS011;2075;51.062;6.920;2023-05-07T00:36:41;8.07;;;5.67;;
4122;SDS011;2075;51.062;6.920;2023-05-07T00:39:33;5.80;;;4.70;;
4122;SDS011;2075;51.062;6.920;2023-05-07T00:42:35;9.63;;;4.80;;
4122;SDS011;2075;51.062;6.920;2023-05-07T00:45:26;4.70;;;4.30;;
4122;SDS011;2075;51.062;6.920;2023-05-07T00:48:19;6.13;;;4.07;;
4122;SDS011;2075;51.062;6.920;2023-05-07T00:51:08;4.53;;;3.90;;
4122;SDS011;2075;51.062;6.920;2023-05-07T00:53:57;5.10;;;4.10;;
4122;SDS011;2075;51.062;6.920;2023-05-07T00:56:52;5.37;;;4.40;;
4122;SDS011;2075;51.062;6.920;2023-05-07T00:59:43;6.90;;;4.50;;
4122;SDS011;2075;51.062;6.920;2023-05-07T01:02:31;4.70;;;4.20;;
4122;SDS011;2075;51.062;6.920;2023-05-07T01:05:23;4.70;;;4.30;;
4122;SDS011;2075;51.062;6.920;2023-05-07T01:08:16;6.20;;;4.73;;
4122;SDS011;2075;51.062;6.920;2023-05-07T01:11:25;6.00;;;4.37;;
4122;SDS011;2075;51.062;6.920;2023-05-07T01:14:26;6.13;;;5.17;;
4122;SDS011;2075;51.062;6.920;2023-05-07T01:17:17;4.87;;;4.47;;
4122;SDS011;2075;51.062;6.920;2023-05-07T01:20:05;4.93;;;4.53;;
4122;SDS011;2075;51.062;6.920;2023-05-07T01:23:02;7.37;;;4.73;;
4122;SDS011;2075;51.062;6.920;2023-05-07T01:25:53;7.43;;;4.80;;
4122;SDS011;2075;51.062;6.920;2023-05-07T01:28:50;5.30;;;4.57;;
4122;SDS011;2075;51.062;6.920;2023-05-07T01:31:51;7.83;;;4.50;;
4122;SDS011;2075;51.062;6.920;2023-05-07T01:34:49;5.47;;;4.40;;
4122;SDS011;2075;51.062;6.920;2023-05-07T01:37:37;5.23;;;4.77;;
4122;SDS011;2075;51.062;6.920;2023-05-07T01:40:30;11.20;;;4.43;;
4122;SDS011;2075;51.062;6.920;2023-05-07T01:43:22;6.90;;;4.27;;
4122;SDS011;2075;51.062;6.920;2023-05-07T01:46:11;5.10;;;4.70;;
4122;SDS011;2075;51.062;6.920;2023-05-07T01:49:20;4.50;;;4.10;;
4122;SDS011;2075;51.062;6.920;2023-05-07T01:52:28;4.93;;;4.10;;
4122;SDS011;2075;51.062;6.920;2023-05-07T01:55:18;5.30;;;4.80;;
4122;SDS011;2075;51.062;6.920;2023-05-07T01:58:11;5.23;;;4.77;;
4122;SDS011;2075;51.062;6.920;2023-05-07T02:01:07;4.73;;;4.33;;
4122;SDS011;2075;51.062;6.920;2023-05-07T02:03:57;5.03;;;4.40;;
4122;SDS011;2075;51.062;6.920;2023-05-07T02:06:53;6.33;;;4.33;;
4122;SDS011;2075;51.062;6.920;2023-05-07T02:09:48;5.60;;;5.07;;
4122;SDS011;2075;51.062;6.920;2023-05-07T02:12:35;6.90;;;4.67;;
4122;SDS011;2075;51.062;6.920;2023-05-07T02:15:27;7.83;;;4.87;;
4122;SDS011;2075;51.062;6.920;2023-05-07T02:18:18;4.90;;;4.20;;
4122;SDS011;2075;51.062;6.920;2023-05-07T02:21:22;5.20;;;3.60;;
4122;SDS011;2075;51.062;6.920;2023-05-07T02:24:21;5.40;;;4.27;;
4122;SDS011;2075;51.062;6.920;2023-05-07T02:27:08;4.03;;;3.73;;
4122;SDS011;2075;51.062;6.920;2023-05-07T02:29:59;4.33;;;4.03;;
4122;SDS011;2075;51.062;6.920;2023-05-07T02:32:51;7.10;;;3.43;;
4122;SDS011;2075;51.062;6.920;2023-05-07T02:35:49;5.33;;;4.30;;
4122;SDS011;2075;51.062;6.920;2023-05-07T02:38:36;4.37;;;3.70;;
4122;SDS011;2075;51.062;6.920;2023-05-07T02:41:31;5.03;;;3.53;;
4122;SDS011;2075;51.062;6.920;2023-05-07T02:44:23;6.40;;;3.80;;
4122;SDS011;2075;51.062;6.920;2023-05-07T02:47:16;4.90;;;4.50;;
4122;SDS011;2075;51.062;6.920;2023-05-07T02:50:17;4.13;;;3.73;;
4122;SDS011;2075;51.062;6.920;2023-05-07T02:53:14;4.37;;;3.97;;
4122;SDS011;2075;51.062;6.920;2023-05-07T02:56:08;5.07;;;4.53;;
4122;SDS011;2075;51.062;6.920;2023-05-07T02:59:09;4.93;;;4.50;;
4122;SDS011;2075;51.062;6.920;2023-05-07T03:02:03;6.50;;;3.60;;
4122;SDS011;2075;51.062;6.920;2023-05-07T03:04:54;8.53;;;4.30;;
4122;SDS011;2075;51.062;6.920;2023-05-07T03:07:45;6.53;;;4.30;;
4122;SDS011;2075;51.062;6.920;2023-05-07T03:10:35;4.77;;;4.10;;
4122;SDS011;2075;51.062;6.920;2023-05-07T03:13:21;4.23;;;3.83;;
4122;SDS011;2075;51.062;6.920;2023-05-07T03:51:17;6.07;;;4.33;;
4122;SDS011;2075;51.062;6.920;2023-05-07T03:54:04;7.10;;;3.87;;
4122;SDS011;2075;51.062;6.920;2023-05-07T03:56:55;4.30;;;3.97;;
4122;SDS011;2075;51.062;6.920;2023-05-07T03:59:45;5.03;;;4.00;;
4122;SDS011;2075;51.062;6.920;2023-05-07T04:02:32;7.13;;;4.00;;
4122;SDS011;2075;51.062;6.920;2023-05-07T04:05:21;5.70;;;4.60;;
4122;SDS011;2075;51.062;6.920;2023-05-07T04:08:17;4.50;;;4.00;;
4122;SDS011;2075;51.062;6.920;2023-05-07T04:11:07;4.30;;;3.80;;
4122;SDS011;2075;51.062;6.920;2023-05-07T04:13:55;4.13;;;3.83;;
4122;SDS011;2075;51.062;6.920;2023-05-07T04:16:46;10.93;;;3.80;;
4122;SDS011;2075;51.062;6.920;2023-05-07T04:19:38;7.50;;;4.10;;
4122;SDS011;2075;51.062;6.920;2023-05-07T04:22:32;7.97;;;4.20;;
4122;SDS011;2075;51.062;6.920;2023-05-07T04:25:24;4.50;;;4.20;;
4122;SDS011;2075;51.062;6.920;2023-05-07T04:28:18;7.40;;;3.40;;
4122;SDS011;2075;51.062;6.920;2023-05-07T04:31:09;6.77;;;3.73;;
4122;SDS011;2075;51.062;6.920;2023-05-07T04:34:03;4.20;;;3.70;;
4122;SDS011;2075;51.062;6.920;2023-05-07T04:36:53;3.80;;;3.50;;
4122;SDS011;2075;51.062;6.920;2023-05-07T04:39:40;4.20;;;3.80;;
4122;SDS011;2075;51.062;6.920;2023-05-07T04:42:28;6.47;;;3.57;;
4122;SDS011;2075;51.062;6.920;2023-05-07T04:45:19;5.30;;;3.33;;
4122;SDS011;2075;51.062;6.920;2023-05-07T04:48:14;7.67;;;3.90;;
4122;SDS011;2075;51.062;6.920;2023-05-07T04:51:05;4.43;;;3.77;;
4122;SDS011;2075;51.062;6.920;2023-05-07T04:53:59;6.50;;;3.77;;
4122;SDS011;2075;51.062;6.920;2023-05-07T04:56:49;4.70;;;3.17;;
4122;SDS011;2075;51.062;6.920;2023-05-07T04:59:37;3.23;;;3.03;;
4122;SDS011;2075;51.062;6.920;2023-05-07T05:02:24;3.53;;;3.23;;
4122;SDS011;2075;51.062;6.920;2023-05-07T05:05:10;4.87;;;4.40;;
4122;SDS011;2075;51.062;6.920;2023-05-07T05:07:57;3.60;;;3.30;;
4122;SDS011;2075;51.062;6.920;2023-05-07T05:10:46;3.70;;;3.40;;
4122;SDS011;2075;51.062;6.920;2023-05-07T05:13:34;5.30;;;3.00;;
4122;SDS011;2075;51.062;6.920;2023-05-07T05:16:28;5.10;;;3.10;;
4122;SDS011;2075;51.062;6.920;2023-05-07T05:19:14;3.07;;;2.87;;
4122;SDS011;2075;51.062;6.920;2023-05-07T05:22:04;3.50;;;3.10;;
4122;SDS011;2075;51.062;6.920;2023-05-07T05:24:53;3.53;;;3.10;;
4122;SDS011;2075;51.062;6.920;2023-05-07T05:27:41;5.43;;;3.10;;
4122;SDS011;2075;51.062;6.920;2023-05-07T05:30:28;3.00;;;2.80;;
4122;SDS011;2075;51.062;6.920;2023-05-07T05:33:15;5.47;;;3.00;;
4122;SDS011;2075;51.062;6.920;2023-05-07T05:36:00;11.07;;;2.73;;
4122;SDS011;2075;51.062;6.920;2023-05-07T05:38:46;3.40;;;2.80;;
4122;SDS011;2075;51.062;6.920;2023-05-07T05:41:32;4.73;;;3.47;;
4122;SDS011;2075;51.062;6.920;2023-05-07T05:44:18;3.13;;;2.90;;
4122;SDS011;2075;51.062;6.920;2023-05-07T05:47:04;12.47;;;9.37;;
4122;SDS011;2075;51.062;6.920;2023-05-07T05:49:51;12.77;;;8.53;;
4122;SDS011;2075;51.062;6.920;2023-05-07T05:52:38;6.27;;;5.67;;
4122;SDS011;2075;51.062;6.920;2023-05-07T05:55:25;7.57;;;3.20;;
4122;SDS011;2075;51.062;6.920;2023-05-07T05:58:11;3.60;;;3.30;;
4122;SDS011;2075;51.062;6.920;2023-05-07T06:01:02;3.37;;;3.10;;
4122;SDS011;2075;51.062;6.920;2023-05-07T06:03:51;3.03;;;2.73;;
4122;SDS011;2075;51.062;6.920;2023-05-07T06:06:39;3.13;;;2.70;;
4122;SDS011;2075;51.062;6.920;2023-05-07T06:09:28;14.80;;;11.40;;
4122;SDS011;2075;51.062;6.920;2023-05-07T06:12:30;4.03;;;3.73;;
4122;SDS011;2075;51.062;6.920;2023-05-07T06:15:26;7.40;;;3.90;;
4122;SDS011;2075;51.062;6.920;2023-05-07T06:18:11;4.40;;;3.03;;
4122;SDS011;2075;51.062;6.920;2023-05-07T06:20:58;3.50;;;2.90;;
4122;SDS011;2075;51.062;6.920;2023-05-07T06:23:49;3.13;;;2.90;;
4122;SDS011;2075;51.062;6.920;2023-05-07T06:26:36;12.40;;;2.50;;
4122;SDS011;2075;51.062;6.920;2023-05-07T06:29:21;23.80;;;14.63;;
4122;SDS011;2075;51.062;6.920;2023-05-07T06:32:10;4.47;;;4.07;;
4122;SDS011;2075;51.062;6.920;2023-05-07T06:34:58;2.90;;;2.80;;
4122;SDS011;2075;51.062;6.920;2023-05-07T06:37:44;2.90;;;2.70;;
4122;SDS011;2075;51.062;6.920;2023-05-07T06:40:37;3.30;;;3.10;;
4122;SDS011;2075;51.062;6.920;2023-05-07T06:43:22;11.90;;;3.17;;
4122;SDS011;2075;51.062;6.920;2023-05-07T06:46:40;6.93;;;2.27;;
4122;SDS011;2075;51.062;6.920;2023-05-07T06:49:26;4.97;;;2.40;;
4122;SDS011;2075;51.062;6.920;2023-05-07T06:52:12;4.13;;;3.83;;
4122;SDS011;2075;51.062;6.920;2023-05-07T06:54:57;3.37;;;2.90;;
4122;SDS011;2075;51.062;6.920;2023-05-07T06:57:45;2.63;;;2.43;;
4122;SDS011;2075;51.062;6.920;2023-05-07T07:00:32;2.57;;;2.37;;
4122;SDS011;2075;51.062;6.920;2023-05-07T07:03:17;2.80;;;2.60;;
4122;SDS011;2075;51.062;6.920;2023-05-07T07:06:04;2.77;;;2.53;;
4122;SDS011;2075;51.062;6.920;2023-05-07T07:08:50;3.40;;;2.17;;
4122;SDS011;2075;51.062;6.920;2023-05-07T07:11:41;7.30;;;4.43;;
4122;SDS011;2075;51.062;6.920;2023-05-07T07:14:29;5.27;;;3.03;;
4122;SDS011;2075;51.062;6.920;2023-05-07T07:17:16;7.83;;;6.83;;
4122;SDS011;2075;51.062;6.920;2023-05-07T07:20:06;4.40;;;4.10;;
4122;SDS011;2075;51.062;6.920;2023-05-07T07:22:53;4.33;;;3.00;;
4122;SDS011;2075;51.062;6.920;2023-05-07T07:25:39;3.60;;;3.30;;
4122;SDS011;2075;51.062;6.920;2023-05-07T07:28:25;5.80;;;3.83;;
4122;SDS011;2075;51.062;6.920;2023-05-07T07:31:13;4.67;;;2.90;;
4122;SDS011;2075;51.062;6.920;2023-05-07T07:33:59;6.03;;;2.87;;
4122;SDS011;2075;51.062;6.920;2023-05-07T07:36:47;8.83;;;3.90;;
4122;SDS011;2075;51.062;6.920;2023-05-07T07:39:35;2.70;;;2.53;;
4122;SDS011;2075;51.062;6.920;2023-05-07T07:42:22;2.37;;;2.17;;
4122;SDS011;2075;51.062;6.920;2023-05-07T07:45:08;2.53;;;2.00;;
4122;SDS011;2075;51.062;6.920;2023-05-07T07:48:00;1.90;;;1.80;;
4122;SDS011;2075;51.062;6.920;2023-05-07T07:50:48;1.80;;;1.70;;
4122;SDS011;2075;51.062;6.920;2023-05-07T07:53:35;1.70;;;1.60;;
4122;SDS011;2075;51.062;6.920;2023-05-07T07:56:21;3.33;;;3.03;;
4122;SDS011;2075;51.062;6.920;2023-05-07T07:59:07;2.97;;;2.77;;
4122;SDS011;2075;51.062;6.920;2023-05-07T08:01:55;2.20;;;2.10;;
4122;SDS011;2075;51.062;6.920;2023-05-07T08:04:44;2.10;;;2.00;;
4122;SDS011;2075;51.062;6.920;2023-05-07T08:07:30;5.30;;;2.00;;
4122;SDS011;2075;51.062;6.920;2023-05-07T08:10:15;1.97;;;1.97;;
4122;SDS011;2075;51.062;6.920;2023-05-07T08:13:06;3.20;;;2.50;;
4122;SDS011;2075;51.062;6.920;2023-05-07T08:15:54;2.33;;;2.00;;
4122;SDS011;2075;51.062;6.920;2023-05-07T08:18:39;2.43;;;2.30;;
4122;SDS011;2075;51.062;6.920;2023-05-07T08:21:27;2.70;;;2.20;;
4122;SDS011;2075;51.062;6.920;2023-05-07T08:24:15;3.90;;;3.70;;
4122;SDS011;2075;51.062;6.920;2023-05-07T08:27:01;2.27;;;2.17;;
4122;SDS011;2075;51.062;6.920;2023-05-07T08:29:46;2.30;;;2.20;;
4122;SDS011;2075;51.062;6.920;2023-05-07T08:32:35;2.67;;;2.47;;
4122;SDS011;2075;51.062;6.920;2023-05-07T08:35:20;2.00;;;1.90;;
4122;SDS011;2075;51.062;6.920;2023-05-07T08:38:07;2.33;;;2.23;;
4122;SDS011;2075;51.062;6.920;2023-05-07T08:40:53;2.50;;;1.80;;
4122;SDS011;2075;51.062;6.920;2023-05-07T08:43:40;3.50;;;3.20;;
4122;SDS011;2075;51.062;6.920;2023-05-07T08:46:26;3.67;;;3.37;;
4122;SDS011;2075;51.062;6.920;2023-05-07T08:49:16;13.20;;;2.70;;
4122;SDS011;2075;51.062;6.920;2023-05-07T08:52:03;2.40;;;2.27;;
4122;SDS011;2075;51.062;6.920;2023-05-07T08:54:50;3.40;;;2.50;;
4122;SDS011;2075;51.062;6.920;2023-05-07T08:57:36;4.70;;;1.90;;
4122;SDS011;2075;51.062;6.920;2023-05-07T09:00:22;2.90;;;2.60;;
4122;SDS011;2075;51.062;6.920;2023-05-07T09:03:10;2.50;;;2.40;;
4122;SDS011;2075;51.062;6.920;2023-05-07T09:05:58;2.33;;;2.20;;
4122;SDS011;2075;51.062;6.920;2023-05-07T09:08:48;5.47;;;4.10;;
4122;SDS011;2075;51.062;6.920;2023-05-07T09:11:37;4.27;;;3.87;;
4122;SDS011;2075;51.062;6.920;2023-05-07T09:14:22;2.63;;;2.53;;
4122;SDS011;2075;51.062;6.920;2023-05-07T09:17:09;5.57;;;2.43;;
4122;SDS011;2075;51.062;6.920;2023-05-07T09:19:54;2.40;;;1.83;;
4122;SDS011;2075;51.062;6.920;2023-05-07T09:22:40;2.43;;;2.10;;
4122;SDS011;2075;51.062;6.920;2023-05-07T09:25:30;2.27;;;2.17;;
4122;SDS011;2075;51.062;6.920;2023-05-07T09:28:22;2.50;;;2.10;;
4122;SDS011;2075;51.062;6.920;2023-05-07T09:31:08;2.27;;;2.17;;
4122;SDS011;2075;51.062;6.920;2023-05-07T09:33:55;2.23;;;2.13;;
4122;SDS011;2075;51.062;6.920;2023-05-07T09:36:42;4.80;;;2.57;;
4122;SDS011;2075;51.062;6.920;2023-05-07T09:39:38;2.93;;;2.73;;
4122;SDS011;2075;51.062;6.920;2023-05-07T09:42:24;2.90;;;2.60;;
4122;SDS011;2075;51.062;6.920;2023-05-07T09:45:13;4.53;;;2.87;;
4122;SDS011;2075;51.062;6.920;2023-05-07T09:48:00;2.43;;;2.23;;
4122;SDS011;2075;51.062;6.920;2023-05-07T09:50:51;2.60;;;2.40;;
4122;SDS011;2075;51.062;6.920;2023-05-07T09:53:43;3.83;;;2.60;;
4122;SDS011;2075;51.062;6.920;2023-05-07T09:56:30;2.60;;;2.50;;
4122;SDS011;2075;51.062;6.920;2023-05-07T09:59:17;8.53;;;7.77;;
4122;SDS011;2075;51.062;6.920;2023-05-07T10:02:05;4.00;;;2.80;;
4122;SDS011;2075;51.062;6.920;2023-05-07T10:05:02;3.77;;;2.93;;
4122;SDS011;2075;51.062;6.920;2023-05-07T10:07:51;5.30;;;2.83;;
4122;SDS011;2075;51.062;6.920;2023-05-07T10:10:39;3.10;;;2.20;;
4122;SDS011;2075;51.062;6.920;2023-05-07T10:13:28;3.47;;;2.43;;
4122;SDS011;2075;51.062;6.920;2023-05-07T10:16:16;2.60;;;2.50;;
4122;SDS011;2075;51.062;6.920;2023-05-07T10:19:07;3.33;;;2.70;;
4122;SDS011;2075;51.062;6.920;2023-05-07T10:21:55;3.23;;;2.70;;
4122;SDS011;2075;51.062;6.920;2023-05-07T10:24:45;2.93;;;2.17;;
4122;SDS011;2075;51.062;6.920;2023-05-07T10:27:38;2.13;;;2.03;;
4122;SDS011;2075;51.062;6.920;2023-05-07T10:30:26;3.00;;;2.20;;
4122;SDS011;2075;51.062;6.920;2023-05-07T10:33:24;2.07;;;1.93;;
4122;SDS011;2075;51.062;6.920;2023-05-07T10:36:15;1.77;;;1.77;;
4122;SDS011;2075;51.062;6.920;2023-05-07T10:39:01;2.53;;;2.27;;
4122;SDS011;2075;51.062;6.920;2023-05-07T10:41:47;1.90;;;1.80;;
4122;SDS011;2075;51.062;6.920;2023-05-07T10:44:34;2.03;;;1.93;;
4122;SDS011;2075;51.062;6.920;2023-05-07T10:47:24;2.50;;;1.80;;
4122;SDS011;2075;51.062;6.920;2023-05-07T10:50:21;2.60;;;2.10;;
4122;SDS011;2075;51.062;6.920;2023-05-07T10:53:23;3.20;;;1.70;;
4122;SDS011;2075;51.062;6.920;2023-05-07T10:56:29;2.13;;;2.03;;
4122;SDS011;2075;51.062;6.920;2023-05-07T10:59:36;2.60;;;1.90;;
4122;SDS011;2075;51.062;6.920;2023-05-07T11:06:09;1.90;;;1.80;;
4122;SDS011;2075;51.062;6.920;2023-05-07T11:09:04;1.80;;;1.70;;
4122;SDS011;2075;51.062;6.920;2023-05-07T11:11:59;1.97;;;1.90;;
4122;SDS011;2075;51.062;6.920;2023-05-07T11:14:52;2.93;;;2.70;;
4122;SDS011;2075;51.062;6.920;2023-05-07T11:17:52;3.73;;;3.20;;
4122;SDS011;2075;51.062;6.920;2023-05-07T11:20:53;2.03;;;1.90;;
4122;SDS011;2075;51.062;6.920;2023-05-07T11:23:57;2.53;;;2.03;;
4122;SDS011;2075;51.062;6.920;2023-05-07T11:26:55;8.27;;;2.20;;
4122;SDS011;2075;51.062;6.920;2023-05-07T11:29:44;2.17;;;2.07;;
4122;SDS011;2075;51.062;6.920;2023-05-07T11:32:32;3.07;;;1.97;;
4122;SDS011;2075;51.062;6.920;2023-05-07T11:35:19;1.90;;;1.80;;
4122;SDS011;2075;51.062;6.920;2023-05-07T11:38:09;2.00;;;1.90;;
4122;SDS011;2075;51.062;6.920;2023-05-07T11:40:57;3.23;;;1.93;;
4122;SDS011;2075;51.062;6.920;2023-05-07T11:43:56;1.83;;;1.70;;
4122;SDS011;2075;51.062;6.920;2023-05-07T11:46:42;1.80;;;1.70;;
4122;SDS011;2075;51.062;6.920;2023-05-07T11:49:28;5.27;;;1.80;;
4122;SDS011;2075;51.062;6.920;2023-05-07T11:52:15;2.37;;;1.90;;
4122;SDS011;2075;51.062;6.920;2023-05-07T11:55:01;2.13;;;1.93;;
4122;SDS011;2075;51.062;6.920;2023-05-07T11:57:48;3.73;;;1.60;;
4122;SDS011;2075;51.062;6.920;2023-05-07T12:00:35;1.90;;;1.83;;
4122;SDS011;2075;51.062;6.920;2023-05-07T12:03:21;1.60;;;1.60;;
4122;SDS011;2075;51.062;6.920;2023-05-07T12:06:07;1.80;;;1.70;;
4122;SDS011;2075;51.062;6.920;2023-05-07T12:08:52;2.33;;;1.80;;
4122;SDS011;2075;51.062;6.920;2023-05-07T12:11:38;2.70;;;2.50;;
4122;SDS011;2075;51.062;6.920;2023-05-07T12:14:27;2.90;;;1.90;;
4122;SDS011;2075;51.062;6.920;2023-05-07T12:17:14;1.73;;;1.63;;
4122;SDS011;2075;51.062;6.920;2023-05-07T12:20:00;2.97;;;1.63;;
4122;SDS011;2075;51.062;6.920;2023-05-07T12:22:45;2.07;;;1.97;;
4122;SDS011;2075;51.062;6.920;2023-05-07T12:25:34;1.90;;;1.80;;
4122;SDS011;2075;51.062;6.920;2023-05-07T12:28:19;3.07;;;1.70;;
4122;SDS011;2075;51.062;6.920;2023-05-07T12:31:05;3.50;;;2.23;;
4122;SDS011;2075;51.062;6.920;2023-05-07T12:33:53;2.20;;;1.80;;
4122;SDS011;2075;51.062;6.920;2023-05-07T12:36:39;2.30;;;2.20;;
4122;SDS011;2075;51.062;6.920;2023-05-07T12:39:25;2.40;;;2.00;;
4122;SDS011;2075;51.062;6.920;2023-05-07T12:42:14;2.43;;;2.20;;
4122;SDS011;2075;51.062;6.920;2023-05-07T12:45:08;1.80;;;1.80;;
4122;SDS011;2075;51.062;6.920;2023-05-07T12:47:54;1.87;;;1.77;;
4122;SDS011;2075;51.062;6.920;2023-05-07T12:50:45;1.90;;;1.80;;
4122;SDS011;2075;51.062;6.920;2023-05-07T12:53:39;1.83;;;1.70;;
4122;SDS011;2075;51.062;6.920;2023-05-07T12:56:26;1.90;;;1.80;;
4122;SDS011;2075;51.062;6.920;2023-05-07T12:59:13;1.30;;;1.30;;
4122;SDS011;2075;51.062;6.920;2023-05-07T13:01:59;1.90;;;1.90;;
4122;SDS011;2075;51.062;6.920;2023-05-07T13:04:44;1.80;;;1.70;;
4122;SDS011;2075;51.062;6.920;2023-05-07T13:07:33;1.90;;;1.80;;
4122;SDS011;2075;51.062;6.920;2023-05-07T13:10:21;2.00;;;1.90;;
4122;SDS011;2075;51.062;6.920;2023-05-07T13:13:07;2.67;;;1.80;;
4122;SDS011;2075;51.062;6.920;2023-05-07T13:15:52;2.73;;;1.70;;
4122;SDS011;2075;51.062;6.920;2023-05-07T13:18:38;3.40;;;2.07;;
4122;SDS011;2075;51.062;6.920;2023-05-07T13:21:26;1.77;;;1.77;;
4122;SDS011;2075;51.062;6.920;2023-05-07T13:24:13;1.90;;;1.80;;
4122;SDS011;2075;51.062;6.920;2023-05-07T13:27:06;2.10;;;1.97;;
4122;SDS011;2075;51.062;6.920;2023-05-07T13:29:53;1.90;;;1.80;;
4122;SDS011;2075;51.062;6.920;2023-05-07T13:32:38;1.87;;;1.77;;
4122;SDS011;2075;51.062;6.920;2023-05-07T13:35:24;1.90;;;1.80;;
4122;SDS011;2075;51.062;6.920;2023-05-07T13:38:09;2.37;;;2.27;;
4122;SDS011;2075;51.062;6.920;2023-05-07T13:40:56;2.03;;;1.93;;
4122;SDS011;2075;51.062;6.920;2023-05-07T13:43:42;1.97;;;1.87;;
4122;SDS011;2075;51.062;6.920;2023-05-07T13:46:27;4.33;;;1.93;;
4122;SDS011;2075;51.062;6.920;2023-05-07T13:49:13;1.97;;;1.87;;
4122;SDS011;2075;51.062;6.920;2023-05-07T13:51:58;2.77;;;1.97;;
4122;SDS011;2075;51.062;6.920;2023-05-07T13:54:46;2.57;;;2.00;;
4122;SDS011;2075;51.062;6.920;2023-05-07T13:57:56;4.00;;;3.07;;
4122;SDS011;2075;51.062;6.920;2023-05-07T14:00:41;6.83;;;5.57;;
4122;SDS011;2075;51.062;6.920;2023-05-07T14:03:27;2.30;;;2.20;;
4122;SDS011;2075;51.062;6.920;2023-05-07T14:06:15;2.67;;;2.47;;
4122;SDS011;2075;51.062;6.920;2023-05-07T14:09:01;3.03;;;2.30;;
4122;SDS011;2075;51.062;6.920;2023-05-07T14:11:46;2.80;;;2.70;;
4122;SDS011;2075;51.062;6.920;2023-05-07T14:14:36;6.10;;;2.90;;
4122;SDS011;2075;51.062;6.920;2023-05-07T14:17:22;2.40;;;2.20;;
4122;SDS011;2075;51.062;6.920;2023-05-07T14:20:13;2.33;;;2.23;;
4122;SDS011;2075;51.062;6.920;2023-05-07T14:23:00;3.50;;;2.33;;
4122;SDS011;2075;51.062;6.920;2023-05-07T14:25:45;3.20;;;3.00;;
4122;SDS011;2075;51.062;6.920;2023-05-07T14:28:31;6.43;;;3.00;;
4122;SDS011;2075;51.062;6.920;2023-05-07T14:31:24;6.27;;;3.17;;
4122;SDS011;2075;51.062;6.920;2023-05-07T14:34:18;8.53;;;3.40;;
4122;SDS011;2075;51.062;6.920;2023-05-07T14:37:21;4.97;;;3.13;;
4122;SDS011;2075;51.062;6.920;2023-05-07T14:40:09;2.77;;;2.57;;
4122;SDS011;2075;51.062;6.920;2023-05-07T14:43:15;6.97;;;2.90;;
4122;SDS011;2075;51.062;6.920;2023-05-07T14:46:01;2.60;;;2.20;;
4122;SDS011;2075;51.062;6.920;2023-05-07T14:48:57;5.50;;;3.00;;
4122;SDS011;2075;51.062;6.920;2023-05-07T14:51:47;2.30;;;2.20;;
4122;SDS011;2075;51.062;6.920;2023-05-07T14:54:34;3.37;;;2.30;;
4122;SDS011;2075;51.062;6.920;2023-05-07T14:57:20;2.47;;;2.27;;
4122;SDS011;2075;51.062;6.920;2023-05-07T15:00:08;7.13;;;2.50;;
4122;SDS011;2075;51.062;6.920;2023-05-07T15:02:56;2.83;;;2.63;;
4122;SDS011;2075;51.062;6.920;2023-05-07T15:05:51;2.63;;;2.40;;
4122;SDS011;2075;51.062;6.920;2023-05-07T15:08:37;6.07;;;3.00;;
4122;SDS011;2075;51.062;6.920;2023-05-07T15:11:23;5.10;;;3.40;;
4122;SDS011;2075;51.062;6.920;2023-05-07T15:14:12;5.13;;;3.97;;
4122;SDS011;2075;51.062;6.920;2023-05-07T15:17:09;5.97;;;4.03;;
4122;SDS011;2075;51.062;6.920;2023-05-07T15:19:56;5.60;;;4.70;;
4122;SDS011;2075;51.062;6.920;2023-05-07T15:22:43;6.50;;;5.40;;
4122;SDS011;2075;51.062;6.920;2023-05-07T15:25:28;9.33;;;5.40;;
4122;SDS011;2075;51.062;6.920;2023-05-07T15:28:21;7.70;;;5.67;;
4122;SDS011;2075;51.062;6.920;2023-05-07T15:31:19;10.03;;;5.80;;
4122;SDS011;2075;51.062;6.920;2023-05-07T15:34:17;11.33;;;6.90;;
4122;SDS011;2075;51.062;6.920;2023-05-07T15:37:03;6.97;;;6.27;;
4122;SDS011;2075;51.062;6.920;2023-05-07T15:40:00;7.67;;;6.30;;
4122;SDS011;2075;51.062;6.920;2023-05-07T15:43:13;7.80;;;6.30;;
4122;SDS011;2075;51.062;6.920;2023-05-07T15:46:16;9.07;;;6.07;;
4122;SDS011;2075;51.062;6.920;2023-05-07T15:49:04;7.50;;;5.70;;
4122;SDS011;2075;51.062;6.920;2023-05-07T15:51:51;12.03;;;5.90;;
4122;SDS011;2075;51.062;6.920;2023-05-07T15:54:38;7.40;;;5.53;;
4122;SDS011;2075;51.062;6.920;2023-05-07T15:57:25;10.20;;;6.00;;
4122;SDS011;2075;51.062;6.920;2023-05-07T16:00:11;5.97;;;4.70;;
4122;SDS011;2075;51.062;6.920;2023-05-07T16:03:00;14.13;;;5.23;;
4122;SDS011;2075;51.062;6.920;2023-05-07T16:05:45;5.83;;;5.33;;
4122;SDS011;2075;51.062;6.920;2023-05-07T16:08:31;7.77;;;5.97;;
4122;SDS011;2075;51.062;6.920;2023-05-07T16:11:17;8.37;;;5.37;;
4122;SDS011;2075;51.062;6.920;2023-05-07T16:14:04;6.50;;;5.90;;
4122;SDS011;2075;51.062;6.920;2023-05-07T16:16:50;6.20;;;5.57;;
4122;SDS011;2075;51.062;6.920;2023-05-07T16:19:35;7.33;;;5.37;;
4122;SDS011;2075;51.062;6.920;2023-05-07T16:22:21;6.10;;;5.50;;
4122;SDS011;2075;51.062;6.920;2023-05-07T16:25:08;9.13;;;5.03;;
4122;SDS011;2075;51.062;6.920;2023-05-07T16:27:56;6.10;;;5.50;;
4122;SDS011;2075;51.062;6.920;2023-05-07T16:30:44;8.03;;;4.60;;
4122;SDS011;2075;51.062;6.920;2023-05-07T16:33:29;7.17;;;5.00;;
4122;SDS011;2075;51.062;6.920;2023-05-07T16:36:15;4.70;;;4.30;;
4122;SDS011;2075;51.062;6.920;2023-05-07T16:39:00;3.83;;;3.63;;
4122;SDS011;2075;51.062;6.920;2023-05-07T16:41:46;3.53;;;3.33;;
4122;SDS011;2075;51.062;6.920;2023-05-07T16:44:34;4.40;;;3.90;;
4122;SDS011;2075;51.062;6.920;2023-05-07T16:47:21;7.80;;;3.80;;
4122;SDS011;2075;51.062;6.920;2023-05-07T16:50:07;4.40;;;4.00;;
4122;SDS011;2075;51.062;6.920;2023-05-07T16:52:53;3.90;;;3.60;;
4122;SDS011;2075;51.062;6.920;2023-05-07T16:55:39;3.80;;;3.43;;
4122;SDS011;2075;51.062;6.920;2023-05-07T16:58:25;5.23;;;3.80;;
4122;SDS011;2075;51.062;6.920;2023-05-07T17:01:11;4.70;;;4.23;;
4122;SDS011;2075;51.062;6.920;2023-05-07T17:03:59;4.10;;;3.80;;
4122;SDS011;2075;51.062;6.920;2023-05-07T17:06:45;4.10;;;3.70;;
4122;SDS011;2075;51.062;6.920;2023-05-07T17:09:30;3.90;;;3.63;;
4122;SDS011;2075;51.062;6.920;2023-05-07T17:12:15;3.93;;;3.63;;
4122;SDS011;2075;51.062;6.920;2023-05-07T17:15:01;3.93;;;3.67;;
4122;SDS011;2075;51.062;6.920;2023-05-07T17:17:46;4.77;;;4.37;;
4122;SDS011;2075;51.062;6.920;2023-05-07T17:20:33;4.63;;;4.10;;
4122;SDS011;2075;51.062;6.920;2023-05-07T17:23:18;5.50;;;4.80;;
4122;SDS011;2075;51.062;6.920;2023-05-07T17:26:09;5.10;;;4.70;;
4122;SDS011;2075;51.062;6.920;2023-05-07T17:28:55;5.50;;;4.53;;
4122;SDS011;2075;51.062;6.920;2023-05-07T17:31:41;7.13;;;5.70;;
4122;SDS011;2075;51.062;6.920;2023-05-07T17:34:26;6.70;;;5.33;;
4122;SDS011;2075;51.062;6.920;2023-05-07T17:37:13;6.13;;;5.43;;
4122;SDS011;2075;51.062;6.920;2023-05-07T17:39:59;6.87;;;5.93;;
4122;SDS011;2075;51.062;6.920;2023-05-07T17:42:44;5.60;;;5.07;;
4122;SDS011;2075;51.062;6.920;2023-05-07T17:45:30;4.90;;;4.50;;
4122;SDS011;2075;51.062;6.920;2023-05-07T17:48:16;6.47;;;5.03;;
4122;SDS011;2075;51.062;6.920;2023-05-07T17:51:01;4.87;;;4.47;;
4122;SDS011;2075;51.062;6.920;2023-05-07T17:53:49;5.03;;;4.63;;
4122;SDS011;2075;51.062;6.920;2023-05-07T17:56:36;5.13;;;4.73;;
4122;SDS011;2075;51.062;6.920;2023-05-07T17:59:22;5.50;;;5.00;;
4122;SDS011;2075;51.062;6.920;2023-05-07T18:02:06;5.70;;;5.13;;
4122;SDS011;2075;51.062;6.920;2023-05-07T18:04:52;5.20;;;4.70;;
4122;SDS011;2075;51.062;6.920;2023-05-07T18:07:38;6.97;;;4.60;;
4122;SDS011;2075;51.062;6.920;2023-05-07T18:10:25;6.43;;;4.37;;
4122;SDS011;2075;51.062;6.920;2023-05-07T18:13:13;5.00;;;4.50;;